Time;durP1;ratioP1;P1;durP2;ratioP2;P2;SDS_P1;SDS_P2;PMS_P1;PMS_P2;Temp;Humidity;BMP_temperature;BMP_pressure;BME280_temperature;BME280_humidity;BME280_pressure;Samples;Min_cycle;Max_cycle;Signal;HPM_P1;HPM_P2
2022/04/15 02:55:41;;;;;;;17.73;16.53;;;12.50;99.90;;;;;;6185037;22;21544;-73
2022/04/15 02:58:08;;;;;;;16.93;16.03;;;12.60;99.90;;;;;;6210605;23;20389;-74
2022/04/15 03:00:35;;;;;;;15.07;14.27;;;12.60;99.90;;;;;;6210094;23;20511;-72
2022/04/15 03:03:02;;;;;;;16.73;15.63;;;12.50;99.90;;;;;;6209845;23;20409;-71
2022/04/15 03:05:30;;;;;;;17.37;16.27;;;12.40;99.90;;;;;;6210029;23;20393;-71
2022/04/15 03:07:56;;;;;;;17.97;16.53;;;12.30;99.90;;;;;;6210305;23;20411;-71
2022/04/15 03:10:24;;;;;;;16.37;15.37;;;12.30;99.90;;;;;;6210369;23;20455;-72
2022/04/15 03:12:52;;;;;;;17.30;16.10;;;12.20;99.90;;;;;;6210448;23;20427;-71
2022/04/15 03:15:19;;;;;;;15.33;14.27;;;12.10;99.90;;;;;;6210771;23;20413;-71
2022/04/15 03:17:45;;;;;;;16.90;15.80;;;12.00;99.90;;;;;;6210200;23;20409;-71
2022/04/15 03:20:13;;;;;;;16.73;15.03;;;12.00;99.90;;;;;;6210155;23;20449;-72
2022/04/15 03:22:41;;;;;;;16.67;15.70;;;12.00;99.90;;;;;;6210065;23;20507;-73
2022/04/15 03:25:11;;;;;;;16.50;15.50;;;12.10;99.90;;;;;;6210443;23;20420;-71
2022/04/15 03:27:38;;;;;;;16.43;15.10;;;12.10;99.90;;;;;;6210532;23;20467;-72
2022/04/15 03:30:07;;;;;;;16.43;15.47;;;12.10;99.90;;;;;;6210729;23;20405;-72
2022/04/15 03:32:34;;;;;;;15.17;14.30;;;12.20;99.90;;;;;;6210442;23;20413;-74
2022/04/15 03:35:00;;;;;;;16.33;15.07;;;12.10;99.90;;;;;;6210296;23;20415;-72
2022/04/15 03:37:27;;;;;;;16.50;15.17;;;12.10;99.90;;;;;;6210110;23;20408;-73
2022/04/15 03:39:54;;;;;;;17.67;16.57;;;12.10;99.90;;;;;;6210156;23;20444;-73
2022/04/15 03:42:20;;;;;;;17.27;16.07;;;12.10;99.90;;;;;;6210396;23;20411;-72
2022/04/15 03:44:47;;;;;;;17.03;15.93;;;12.00;99.90;;;;;;6210734;23;20495;-71
2022/04/15 03:47:16;;;;;;;18.63;17.33;;;11.90;99.90;;;;;;6212034;23;20413;-73
2022/04/15 03:49:43;;;;;;;17.47;16.40;;;11.80;99.90;;;;;;6212039;23;20697;-73
2022/04/15 03:52:09;;;;;;;18.13;16.63;;;12.20;99.90;;;;;;6212194;23;20432;-72
2022/04/15 03:54:36;;;;;;;18.90;17.60;;;11.70;99.90;;;;;;6212711;23;20439;-71
2022/04/15 03:57:03;;;;;;;18.67;17.40;;;11.70;99.90;;;;;;6211831;23;20436;-72
2022/04/15 03:59:30;;;;;;;18.47;17.17;;;11.70;99.90;;;;;;6212233;23;20444;-72
2022/04/15 04:01:56;;;;;;;17.47;16.17;;;11.60;99.90;;;;;;6212811;23;20413;-71
2022/04/15 04:04:24;;;;;;;19.67;18.33;;;11.70;99.90;;;;;;6213748;23;20768;-72
2022/04/15 04:06:51;;;;;;;17.83;16.77;;;11.60;99.90;;;;;;6213611;23;20408;-73
2022/04/15 04:09:18;;;;;;;18.90;17.40;;;11.50;99.90;;;;;;6213330;23;20408;-72
2022/04/15 04:11:44;;;;;;;18.13;16.87;;;11.50;99.90;;;;;;6213192;23;20653;-73
2022/04/15 04:14:11;;;;;;;19.33;17.83;;;11.40;99.90;;;;;;6213212;23;20451;-72
2022/04/15 04:16:38;;;;;;;17.00;15.83;;;11.30;99.90;;;;;;6213742;23;20409;-72
2022/04/15 04:19:04;;;;;;;19.07;17.77;;;11.30;99.90;;;;;;6213758;23;20408;-72
2022/04/15 04:21:33;;;;;;;18.73;17.43;;;11.20;99.90;;;;;;6213013;23;20448;-72
2022/04/15 04:24:00;;;;;;;18.90;17.57;;;11.20;99.90;;;;;;6213207;23;20781;-73
2022/04/15 04:26:26;;;;;;;18.03;16.93;;;11.20;99.90;;;;;;6212972;23;20408;-72
2022/04/15 04:28:53;;;;;;;19.47;18.00;;;11.20;99.90;;;;;;6213412;23;20408;-73
2022/04/15 04:31:22;;;;;;;20.00;18.37;;;11.20;99.90;;;;;;6213076;23;20405;-72
2022/04/15 04:33:48;;;;;;;19.57;18.27;;;11.10;99.90;;;;;;6212829;23;20412;-73
2022/04/15 04:36:15;;;;;;;19.90;18.30;;;11.00;99.90;;;;;;6213009;23;20412;-73
2022/04/15 04:38:43;;;;;;;20.33;18.20;;;11.00;99.90;;;;;;6213026;23;20416;-72
2022/04/15 04:41:10;;;;;;;18.50;17.30;;;10.90;99.90;;;;;;6212744;23;20506;-73
2022/04/15 04:43:36;;;;;;;20.13;18.63;;;11.00;99.90;;;;;;6213298;23;20428;-73
2022/04/15 04:46:03;;;;;;;18.97;17.67;;;11.00;99.90;;;;;;6212800;23;20415;-72
2022/04/15 04:48:30;;;;;;;17.73;16.43;;;11.00;99.90;;;;;;6212929;23;20427;-73
2022/04/15 04:50:56;;;;;;;18.20;17.07;;;11.00;99.90;;;;;;6212886;23;20413;-72
2022/04/15 04:53:23;;;;;;;19.20;17.63;;;11.10;99.90;;;;;;6212828;23;20917;-72
2022/04/15 04:55:51;;;;;;;18.40;17.10;;;11.10;99.90;;;;;;6212077;23;20950;-73
2022/04/15 04:58:18;;;;;;;16.90;15.80;;;11.20;99.90;;;;;;6212773;23;20459;-72
2022/04/15 05:00:44;;;;;;;18.63;17.13;;;11.30;99.90;;;;;;6212637;23;20448;-72
2022/04/15 05:03:11;;;;;;;17.90;16.20;;;11.30;99.90;;;;;;6212712;23;20416;-73
2022/04/15 05:05:38;;;;;;;16.70;15.47;;;11.40;99.90;;;;;;6213054;23;20408;-71
2022/04/15 05:08:06;;;;;;;17.43;16.33;;;11.50;99.90;;;;;;6212765;23;20412;-72
2022/04/15 05:10:32;;;;;;;18.60;17.47;;;11.50;99.90;;;;;;6212668;23;20412;-72
2022/04/15 05:13:00;;;;;;;17.63;16.40;;;11.60;99.90;;;;;;6212430;23;20463;-72
2022/04/15 05:15:27;;;;;;;16.37;15.27;;;11.70;99.90;;;;;;6212438;23;20900;-72
2022/04/15 05:17:54;;;;;;;19.27;17.37;;;11.70;99.90;;;;;;6212880;23;20408;-72
2022/04/15 05:20:20;;;;;;;17.10;16.00;;;11.60;99.90;;;;;;6212952;23;20444;-73
2022/04/15 05:22:47;;;;;;;17.50;16.47;;;11.70;99.90;;;;;;6212886;23;20417;-73
2022/04/15 05:25:14;;;;;;;17.40;16.40;;;11.70;99.90;;;;;;6212185;23;20415;-73
2022/04/15 05:27:41;;;;;;;17.30;16.20;;;11.70;99.90;;;;;;6212540;23;20413;-73
2022/04/15 05:30:10;;;;;;;17.93;16.70;;;11.80;99.90;;;;;;6212823;23;20403;-73
2022/04/15 05:32:36;;;;;;;17.00;15.90;;;11.90;99.90;;;;;;6212871;23;20474;-73
2022/04/15 05:35:04;;;;;;;16.60;15.60;;;12.10;99.90;;;;;;6212713;23;20412;-73
2022/04/15 05:37:30;;;;;;;16.83;15.77;;;12.30;99.90;;;;;;6212499;23;20409;-73
2022/04/15 05:39:57;;;;;;;15.90;14.90;;;12.60;99.90;;;;;;6212021;23;20448;-74
2022/04/15 05:42:27;;;;;;;14.50;13.50;;;13.00;99.90;;;;;;6212725;23;20416;-73
2022/04/15 05:44:53;;;;;;;17.23;15.50;;;13.20;99.90;;;;;;6212733;23;20467;-72
2022/04/15 05:47:21;;;;;;;15.70;14.60;;;13.50;99.90;;;;;;6212387;23;20439;-74
2022/04/15 05:49:48;;;;;;;16.43;15.43;;;13.90;99.90;;;;;;6209638;23;20408;-73
2022/04/15 05:52:15;;;;;;;14.93;14.00;;;14.20;99.90;;;;;;6213144;23;20408;-73
2022/04/15 05:54:41;;;;;;;16.40;15.20;;;14.40;99.90;;;;;;6212238;23;20432;-72
2022/04/15 05:57:08;;;;;;;16.40;15.43;;;14.60;99.90;;;;;;6213047;23;20437;-72
2022/04/15 05:59:35;;;;;;;16.43;15.30;;;14.50;99.90;;;;;;6213088;23;20409;-74
2022/04/15 06:02:01;;;;;;;16.80;15.60;;;14.70;99.90;;;;;;6212505;23;20449;-74
2022/04/15 06:04:30;;;;;;;15.97;14.93;;;14.90;99.90;;;;;;6212548;23;20405;-74
2022/04/15 06:06:56;;;;;;;15.80;14.90;;;15.10;99.90;;;;;;6212054;23;20416;-73
2022/04/15 06:09:23;;;;;;;15.43;14.37;;;15.30;99.90;;;;;;6211599;23;20409;-73
2022/04/15 06:14:56;;;;;;;14.80;13.83;;;16.60;99.90;;;;;;6160077;23;20471;-74
2022/04/15 06:17:27;;;;;;;16.37;15.27;;;16.80;99.90;;;;;;6211176;23;20416;-75
2022/04/15 06:19:57;;;;;;;14.90;13.90;;;16.80;99.90;;;;;;6210864;23;20485;-74
2022/04/15 06:22:24;;;;;;;16.40;15.30;;;16.10;99.90;;;;;;6210632;23;20428;-73
2022/04/15 06:24:51;;;;;;;19.00;17.70;;;16.70;99.90;;;;;;6212638;23;20413;-73
2022/04/15 06:27:17;;;;;;;16.93;15.60;;;16.50;99.90;;;;;;6212930;23;20413;-72
2022/04/15 06:29:44;;;;;;;15.77;14.77;;;16.40;99.90;;;;;;6212769;23;20731;-72
2022/04/15 06:32:11;;;;;;;18.20;16.80;;;16.30;99.90;;;;;;6212447;23;20405;-73
2022/04/15 06:34:37;;;;;;;16.50;15.53;;;16.20;99.90;;;;;;6209532;23;20405;-73
2022/04/15 06:37:05;;;;;;;16.43;15.43;;;16.30;99.90;;;;;;6212896;23;20393;-74
2022/04/15 06:39:33;;;;;;;15.60;14.70;;;16.70;99.90;;;;;;6213089;23;20417;-73
2022/04/15 06:41:59;;;;;;;17.07;15.83;;;17.40;99.90;;;;;;6212821;23;20437;-73
2022/04/15 06:44:26;;;;;;;16.77;15.70;;;17.90;99.90;;;;;;6212644;23;20961;-73
2022/04/15 06:46:53;;;;;;;16.37;15.47;;;18.20;99.90;;;;;;6213285;23;20408;-75
2022/04/15 06:49:19;;;;;;;14.87;14.17;;;18.50;99.90;;;;;;6212929;23;20408;-73
2022/04/15 06:51:46;;;;;;;15.73;14.63;;;18.90;99.90;;;;;;6213395;23;20416;-74
2022/04/15 06:54:14;;;;;;;14.57;13.80;;;19.40;99.90;;;;;;6212505;23;20411;-74
2022/04/15 06:56:41;;;;;;;17.07;15.97;;;20.00;99.90;;;;;;6212119;23;20445;-74
2022/04/15 06:59:07;;;;;;;16.13;15.20;;;20.60;99.90;;;;;;6212706;23;20934;-73
2022/04/15 07:01:35;;;;;;;16.33;15.43;;;21.20;99.90;;;;;;6212994;23;20440;-74
2022/04/15 07:04:02;;;;;;;15.53;14.40;;;21.40;98.80;;;;;;6213394;23;20422;-74
2022/04/15 07:06:29;;;;;;;16.53;15.53;;;21.90;98.10;;;;;;6213234;23;20412;-75
2022/04/15 07:08:56;;;;;;;16.27;15.17;;;22.40;96.70;;;;;;6212854;23;20405;-74
2022/04/15 07:11:24;;;;;;;15.73;14.60;;;22.60;96.20;;;;;;6212984;23;20428;-73
2022/04/15 07:13:50;;;;;;;17.00;15.60;;;23.20;95.00;;;;;;6213655;23;20415;-74
2022/04/15 07:16:17;;;;;;;16.40;15.50;;;23.60;94.40;;;;;;6213896;23;20851;-74
2022/04/15 07:18:44;;;;;;;17.43;16.33;;;23.30;93.90;;;;;;6213090;23;20420;-73
2022/04/15 07:21:21;;;;;;;17.00;16.00;;;23.60;93.90;;;;;;6213176;23;20441;-75
2022/04/15 07:24:20;;;;;;;18.40;17.40;;;24.20;92.60;;;;;;6213189;23;20982;-74
2022/04/15 07:26:54;;;;;;;19.50;18.30;;;23.80;92.80;;;;;;6213452;23;20413;-75
2022/04/15 07:29:26;;;;;;;18.77;17.33;;;24.90;92.50;;;;;;6213323;23;20446;-74
2022/04/15 07:31:52;;;;;;;19.47;18.27;;;24.60;90.70;;;;;;6212130;23;20536;-73
2022/04/15 07:34:19;;;;;;;19.37;18.07;;;24.60;90.50;;;;;;6213502;23;20405;-73
2022/04/15 07:36:53;;;;;;;19.60;18.10;;;24.70;90.30;;;;;;6213482;23;20409;-72
2022/04/15 07:39:21;;;;;;;19.40;18.10;;;25.30;87.50;;;;;;6213306;23;20396;-73
2022/04/15 07:41:48;;;;;;;19.27;17.97;;;25.70;85.80;;;;;;6213418;23;20445;-73
2022/04/15 07:44:16;;;;;;;18.63;17.50;;;25.50;85.10;;;;;;6212724;23;20409;-73
2022/04/15 07:46:43;;;;;;;17.83;16.93;;;25.70;84.20;;;;;;6213014;23;20416;-73
2022/04/15 07:49:11;;;;;;;20.17;18.70;;;25.50;85.40;;;;;;6213205;23;20413;-73
2022/04/15 07:51:38;;;;;;;20.57;19.00;;;25.90;83.60;;;;;;6213148;23;20404;-73
2022/04/15 07:54:06;;;;;;;20.50;19.30;;;25.40;83.30;;;;;;6213552;23;20409;-74
2022/04/15 07:56:34;;;;;;;19.80;18.40;;;25.10;83.60;;;;;;6213468;23;20437;-73
2022/04/15 07:59:01;;;;;;;20.77;19.37;;;25.60;82.00;;;;;;6212916;23;20409;-73
2022/04/15 08:01:29;;;;;;;19.70;18.50;;;25.60;80.30;;;;;;6213341;23;20437;-73
2022/04/15 08:03:56;;;;;;;21.10;19.70;;;25.70;81.40;;;;;;6213328;23;20413;-74
2022/04/15 08:06:25;;;;;;;20.10;18.97;;;25.80;80.30;;;;;;6213477;23;20415;-73
2022/04/15 08:08:54;;;;;;;20.93;19.70;;;26.30;77.90;;;;;;6212925;23;20412;-73
2022/04/15 08:11:21;;;;;;;21.60;20.30;;;;;;;;;;6213335;23;20445;-73
2022/04/15 08:13:48;;;;;;;20.10;19.00;;;26.50;74.70;;;;;;6212790;23;20492;-74
2022/04/15 08:16:15;;;;;;;22.90;21.00;;;26.10;76.80;;;;;;6213325;23;20405;-73
2022/04/15 08:18:43;;;;;;;20.53;19.40;;;27.10;74.00;;;;;;6212750;23;20409;-72
2022/04/15 08:21:10;;;;;;;23.90;22.10;;;27.10;73.00;;;;;;6212180;23;20495;-75
2022/04/15 08:23:37;;;;;;;20.53;19.30;;;27.40;72.70;;;;;;6212818;23;20416;-74
2022/04/15 08:26:04;;;;;;;21.77;20.37;;;27.10;71.90;;;;;;6212931;23;20715;-74
2022/04/15 08:28:31;;;;;;;20.70;19.40;;;27.20;72.00;;;;;;6212521;23;20455;-74
2022/04/15 08:30:57;;;;;;;22.50;21.13;;;27.60;70.70;;;;;;6213730;23;20405;-74
2022/04/15 08:33:24;;;;;;;21.83;20.43;;;27.90;69.50;;;;;;6214438;23;20475;-71
2022/04/15 08:35:52;;;;;;;21.90;20.50;;;27.60;69.70;;;;;;6214890;23;20424;-72
2022/04/15 08:38:20;;;;;;;22.73;21.23;;;27.50;70.10;;;;;;6214344;23;20975;-72
2022/04/15 08:40:50;;;;;;;22.10;20.80;;;27.70;68.20;;;;;;6214680;23;20417;-73
2022/04/15 08:43:17;;;;;;;26.10;24.50;;;27.70;67.50;;;;;;6214519;23;20455;-73
2022/04/15 08:45:47;;;;;;;24.73;23.03;;;27.30;67.20;;;;;;6214619;23;20419;-73
2022/04/15 08:48:14;;;;;;;22.70;21.00;;;27.10;69.20;;;;;;6214545;23;20490;-73
2022/04/15 08:50:41;;;;;;;22.50;21.07;;;27.00;70.20;;;;;;6214588;23;20409;-73
2022/04/15 08:53:10;;;;;;;24.37;22.87;;;27.10;70.00;;;;;;6214791;23;20405;-73
2022/04/15 08:55:36;;;;;;;24.03;22.53;;;27.60;69.30;;;;;;6214230;23;20941;-73
2022/04/15 08:58:04;;;;;;;24.63;22.67;;;28.00;67.10;;;;;;6213982;23;20443;-73
2022/04/15 09:00:31;;;;;;;24.93;23.43;;;27.20;68.70;;;;;;6214483;23;20405;-73
2022/04/15 09:02:57;;;;;;;22.80;21.40;;;27.10;69.80;;;;;;6214088;23;20515;-73
2022/04/15 09:05:26;;;;;;;23.63;22.23;;;27.30;70.40;;;;;;6211840;23;20496;-74
2022/04/15 09:08:04;;;;;;;25.80;24.10;;;27.70;68.60;;;;;;6209542;23;20416;-75
2022/04/15 09:10:34;;;;;;;25.93;24.33;;;27.60;67.70;;;;;;6213760;23;20471;-76
2022/04/15 09:13:01;;;;;;;26.07;24.30;;;27.70;66.50;;;;;;6213980;23;20437;-74
2022/04/15 09:15:27;;;;;;;24.03;22.73;;;27.70;66.00;;;;;;6213954;23;20428;-75
2022/04/15 09:17:54;;;;;;;24.67;23.23;;;28.20;65.60;;;;;;6214097;23;20487;-76
2022/04/15 09:20:23;;;;;;;25.37;23.80;;;28.20;65.10;;;;;;6213906;23;20405;-75
2022/04/15 09:22:55;;;;;;;25.23;23.73;;;28.00;66.30;;;;;;6214165;23;20506;-75
2022/04/15 09:25:25;;;;;;;25.70;24.10;;;27.90;65.10;;;;;;6214074;23;20429;-75
2022/04/15 09:27:56;;;;;;;26.93;25.13;;;27.70;64.60;;;;;;6214010;23;20397;-74
2022/04/15 09:30:33;;;;;;;25.93;24.10;;;27.40;63.60;;;;;;6214212;23;20705;-74
2022/04/15 09:33:02;;;;;;;24.67;22.97;;;27.10;64.50;;;;;;6213653;23;20725;-74
2022/04/15 09:35:29;;;;;;;25.77;24.13;;;27.70;63.20;;;;;;6213385;23;20963;-74
2022/04/15 09:37:59;;;;;;;25.17;23.57;;;28.00;62.60;;;;;;6213776;23;20413;-75
2022/04/15 09:40:26;;;;;;;25.43;23.70;;;28.20;64.60;;;;;;6213842;23;20400;-75
2022/04/15 09:42:55;;;;;;;26.23;24.53;;;28.50;62.80;;;;;;6213133;23;21046;-75
2022/04/15 09:45:24;;;;;;;24.47;23.07;;;28.40;61.90;;;;;;6214055;23;20783;-74
2022/04/15 09:47:54;;;;;;;26.37;24.73;;;27.10;65.60;;;;;;6213980;23;20409;-74
2022/04/15 09:50:27;;;;;;;24.33;22.80;;;27.00;65.60;;;;;;6213418;23;20420;-74
2022/04/15 09:52:54;;;;;;;25.80;24.00;;;27.10;65.20;;;;;;6213604;23;20452;-74
2022/04/15 09:55:24;;;;;;;24.97;23.37;;;26.40;65.30;;;;;;6213826;23;20459;-74
2022/04/15 09:57:51;;;;;;;25.00;23.43;;;26.00;66.30;;;;;;6213287;23;20440;-73
2022/04/15 10:00:20;;;;;;;24.73;23.13;;;26.70;65.60;;;;;;6213812;23;20412;-74
2022/04/15 10:02:49;;;;;;;23.60;22.20;;;27.80;62.50;;;;;;6213455;23;20449;-74
2022/04/15 10:05:16;;;;;;;25.73;24.17;;;28.70;60.80;;;;;;6213527;23;20722;-73
2022/04/15 10:07:43;;;;;;;25.00;23.40;;;28.60;59.80;;;;;;6213564;23;20470;-73
2022/04/15 10:10:11;;;;;;;24.60;22.90;;;27.80;61.60;;;;;;6213181;23;20412;-74
2022/04/15 10:12:40;;;;;;;24.93;23.50;;;28.30;61.00;;;;;;6213508;23;20827;-74
2022/04/15 10:15:09;;;;;;;24.93;23.50;;;28.20;60.50;;;;;;6213738;23;20415;-75
2022/04/15 10:17:37;;;;;;;26.07;24.53;;;28.60;59.90;;;;;;6213694;23;20440;-74
2022/04/15 10:20:05;;;;;;;21.23;20.13;;;28.90;58.80;;;;;;6213695;23;20412;-74
2022/04/15 10:22:32;;;;;;;22.63;21.33;;;30.00;58.30;;;;;;6212786;23;20436;-74
2022/04/15 10:24:59;;;;;;;23.93;22.53;;;29.60;56.50;;;;;;6213268;23;20474;-74
2022/04/15 10:27:29;;;;;;;23.70;22.13;;;28.80;56.30;;;;;;6213177;23;20416;-75
2022/04/15 10:30:05;;;;;;;24.60;23.00;;;27.10;59.10;;;;;;6213318;23;20393;-75
2022/04/15 10:32:49;;;;;;;22.60;21.27;;;26.40;61.40;;;;;;6212285;23;20900;-74
2022/04/15 10:35:23;;;;;;;21.97;20.50;;;26.70;60.60;;;;;;6213500;23;20397;-74
2022/04/15 10:37:55;;;;;;;23.20;21.70;;;27.20;60.90;;;;;;6213234;23;20762;-74
2022/04/15 10:40:23;;;;;;;22.60;21.10;;;27.80;59.20;;;;;;6213324;23;20389;-73
2022/04/15 10:42:50;;;;;;;21.80;20.50;;;28.50;57.50;;;;;;6213053;23;20441;-74
2022/04/15 10:45:28;;;;;;;21.73;20.20;;;27.90;56.80;;;;;;6213226;23;20415;-73
2022/04/15 10:48:00;;;;;;;22.83;21.63;;;27.70;56.50;;;;;;6212165;23;20432;-74
2022/04/15 10:50:27;;;;;;;22.10;20.63;;;27.50;56.10;;;;;;6212590;23;20408;-76
2022/04/15 10:53:18;;;;;;;23.40;21.93;;;26.50;58.60;;;;;;6213130;23;20416;-75
2022/04/15 10:55:48;;;;;;;23.23;21.80;;;27.10;58.60;;;;;;6212963;23;20496;-74
2022/04/15 10:58:16;;;;;;;24.13;22.20;;;26.20;59.10;;;;;;6212673;23;20773;-73
2022/04/15 11:03:31;;;;;;;18.80;17.70;;;24.50;62.90;;;;;;6212832;23;20843;-76
2022/04/15 11:06:02;;;;;;;22.93;21.33;;;25.30;61.30;;;;;;6213076;23;20431;-74
2022/04/15 11:08:44;;;;;;;19.03;17.60;;;25.70;61.60;;;;;;6213252;23;20782;-74
2022/04/15 11:11:10;;;;;;;19.17;18.00;;;25.80;60.90;;;;;;6212738;23;20729;-74
2022/04/15 11:14:00;;;;;;;19.93;18.73;;;26.90;58.40;;;;;;6213133;23;20404;-75
2022/04/15 11:16:43;;;;;;;20.23;18.93;;;27.70;56.60;;;;;;6212841;23;20776;-75
2022/04/15 11:19:15;;;;;;;18.90;17.80;;;28.50;54.50;;;;;;6212987;23;20403;-75
2022/04/15 11:21:41;;;;;;;19.90;18.70;;;29.10;53.70;;;;;;6212774;23;20433;-74
2022/04/15 11:24:10;;;;;;;18.27;17.37;;;29.40;53.80;;;;;;6212978;23;20491;-74
2022/04/15 11:26:38;;;;;;;20.20;19.00;;;29.80;51.70;;;;;;6213218;23;20459;-74
2022/04/15 11:29:06;;;;;;;19.80;18.60;;;29.30;50.30;;;;;;6213111;23;20416;-74
2022/04/15 11:31:34;;;;;;;17.90;16.90;;;28.90;50.90;;;;;;6212453;23;20894;-75
2022/04/15 11:34:06;;;;;;;17.60;16.70;;;28.80;52.20;;;;;;6212508;23;20416;-75
2022/04/15 11:36:36;;;;;;;20.17;18.77;;;29.20;52.70;;;;;;6212938;23;20409;-74
2022/04/15 11:39:05;;;;;;;22.87;21.33;;;30.10;51.80;;;;;;6213182;23;20420;-75
2022/04/15 11:41:31;;;;;;;19.87;18.60;;;29.40;51.50;;;;;;6212676;23;20405;-74
2022/04/15 11:44:00;;;;;;;21.90;20.13;;;27.80;54.30;;;;;;6213037;23;20409;-73
2022/04/15 11:46:28;;;;;;;21.37;20.17;;;25.80;56.50;;;;;;6212820;23;20459;-73
2022/04/15 11:48:56;;;;;;;21.87;20.30;;;24.40;59.30;;;;;;6212893;23;20463;-74
2022/04/15 11:51:24;;;;;;;21.90;20.50;;;23.70;62.60;;;;;;6212837;23;20453;-74
2022/04/15 11:53:54;;;;;;;20.00;18.90;;;24.40;61.90;;;;;;6212895;23;20503;-74
2022/04/15 11:56:25;;;;;;;20.87;19.57;;;25.40;60.60;;;;;;6212650;23;20459;-74
2022/04/15 11:58:52;;;;;;;18.17;17.27;;;26.10;57.90;;;;;;6211928;23;20404;-74
2022/04/15 12:01:27;;;;;;;18.90;17.60;;;26.50;56.80;;;;;;6211438;23;20417;-74
2022/04/15 12:03:54;;;;;;;19.87;18.60;;;27.20;55.00;;;;;;6212372;23;20944;-75
2022/04/15 12:06:22;;;;;;;19.03;17.70;;;27.70;54.30;;;;;;6213971;23;20412;-74
2022/04/15 12:08:49;;;;;;;21.80;20.40;;;28.10;53.10;;;;;;6215038;23;20496;-74
2022/04/15 12:11:22;;;;;;;18.37;17.37;;;27.90;53.50;;;;;;6214027;23;20416;-75
2022/04/15 12:13:53;;;;;;;18.40;17.30;;;28.10;54.30;;;;;;6214848;23;20393;-74
2022/04/15 12:16:20;;;;;;;18.73;17.60;;;28.40;53.80;;;;;;6214556;23;20393;-75
2022/04/15 12:18:47;;;;;;;17.57;16.67;;;29.40;52.00;;;;;;6214777;23;20409;-74
2022/04/15 12:21:13;;;;;;;17.77;16.77;;;29.30;49.90;;;;;;6214650;23;20692;-73
2022/04/15 12:23:40;;;;;;;17.70;16.70;;;28.30;50.00;;;;;;6214429;23;20445;-73
2022/04/15 12:26:09;;;;;;;17.30;16.30;;;26.90;51.80;;;;;;6214506;23;20413;-74
2022/04/15 12:31:30;;;;;;;19.03;17.83;;;25.00;56.90;;;;;;6214489;23;20384;-74
2022/04/15 12:33:58;;;;;;;19.23;18.03;;;24.40;58.80;;;;;;6214153;23;20396;-74
2022/04/15 12:36:25;;;;;;;18.17;16.90;;;24.80;57.80;;;;;;6214470;23;20560;-74
2022/04/15 12:38:59;;;;;;;17.80;16.60;;;25.40;57.30;;;;;;6214486;23;20409;-74
2022/04/15 12:41:38;;;;;;;18.53;16.97;;;25.90;56.70;;;;;;6214329;23;20408;-74
2022/04/15 12:44:20;;;;;;;19.90;18.70;;;26.00;56.40;;;;;;6214444;23;20801;-74
2022/04/15 12:46:49;;;;;;;18.87;17.77;;;26.40;55.60;;;;;;6214181;23;20415;-73
2022/04/15 12:49:25;;;;;;;19.20;18.00;;;26.50;55.70;;;;;;6214131;23;20427;-74
2022/04/15 12:51:52;;;;;;;19.90;18.50;;;26.10;56.10;;;;;;6214151;23;20915;-73
2022/04/15 12:54:19;;;;;;;19.47;18.17;;;25.70;56.60;;;;;;6214281;23;20409;-74
2022/04/15 12:56:56;;;;;;;18.50;17.40;;;25.50;57.10;;;;;;6213823;23;20436;-74
2022/04/15 12:59:25;;;;;;;19.00;17.90;;;25.60;57.10;;;;;;6210677;23;20431;-73
2022/04/15 13:01:51;;;;;;;18.80;17.80;;;25.60;57.00;;;;;;6211714;23;20451;-74
2022/04/15 13:04:19;;;;;;;17.17;16.20;;;26.10;56.50;;;;;;6211119;23;20409;-74
2022/04/15 13:06:45;;;;;;;17.47;16.43;;;26.20;55.60;;;;;;6212475;23;20436;-72
2022/04/15 13:09:12;;;;;;;15.80;15.00;;;25.20;55.50;;;;;;6211891;23;20505;-74
2022/04/15 13:11:39;;;;;;;16.27;15.37;;;24.40;57.90;;;;;;6212095;23;20408;-73
2022/04/15 13:14:06;;;;;;;16.40;15.43;;;23.40;58.70;;;;;;6213546;23;20785;-74
2022/04/15 13:16:34;;;;;;;15.90;15.03;;;23.30;60.00;;;;;;6213511;23;20907;-73
2022/04/15 13:19:00;;;;;;;15.23;14.43;;;24.10;58.60;;;;;;6213205;23;20435;-74
2022/04/15 13:21:28;;;;;;;15.27;14.37;;;24.40;57.50;;;;;;6213758;23;20437;-73
2022/04/15 13:23:59;;;;;;;15.33;14.33;;;24.70;56.30;;;;;;6213542;23;20448;-74
2022/04/15 13:26:27;;;;;;;16.30;15.10;;;25.60;56.10;;;;;;6213288;23;20487;-73
2022/04/15 13:28:53;;;;;;;14.67;13.87;;;26.30;54.30;;;;;;6213674;23;20409;-74
2022/04/15 13:31:20;;;;;;;15.20;14.43;;;26.90;53.30;;;;;;6213344;23;20900;-73
2022/04/15 13:33:48;;;;;;;14.40;13.70;;;26.30;52.50;;;;;;6213158;23;20470;-73
2022/04/15 13:36:15;;;;;;;16.70;15.70;;;25.60;53.60;;;;;;6213175;23;20408;-74
2022/04/15 13:38:41;;;;;;;15.30;14.27;;;26.40;53.40;;;;;;6212844;23;20413;-72
2022/04/15 13:41:10;;;;;;;15.90;15.00;;;26.50;52.90;;;;;;6213618;23;20765;-74
2022/04/15 13:43:36;;;;;;;16.40;15.57;;;27.50;53.00;;;;;;6212965;23;20443;-72
2022/04/15 13:46:03;;;;;;;16.20;15.43;;;27.70;51.80;;;;;;6213069;23;20416;-73
2022/04/15 13:48:30;;;;;;;17.20;16.20;;;27.60;52.40;;;;;;6210720;23;20416;-73
2022/04/15 13:50:58;;;;;;;15.97;15.17;;;27.60;51.10;;;;;;6211616;23;20466;-72
2022/04/15 13:58:53;;;;;;;16.90;16.00;;;27.90;51.00;;;;;;6213421;23;20444;-73
2022/04/15 14:01:27;;;;;;;16.53;15.33;;;28.10;50.60;;;;;;6212504;23;20413;-73
2022/04/15 14:03:55;;;;;;;16.47;15.67;;;28.10;50.60;;;;;;6211887;23;20479;-72
2022/04/15 14:06:23;;;;;;;16.50;15.33;;;27.70;51.10;;;;;;6211966;23;20497;-73
2022/04/15 14:08:50;;;;;;;16.80;15.80;;;27.60;51.20;;;;;;6211704;23;20904;-73
2022/04/15 14:11:17;;;;;;;13.90;13.30;;;27.20;51.00;;;;;;6211968;23;20409;-73
2022/04/15 14:13:43;;;;;;;14.97;14.27;;;26.60;51.90;;;;;;6211856;23;20416;-73
2022/04/15 14:16:11;;;;;;;16.43;15.40;;;26.20;52.40;;;;;;6211501;23;20916;-73
2022/04/15 14:18:37;;;;;;;14.80;13.90;;;26.00;53.10;;;;;;6212239;23;20436;-73
2022/04/15 14:21:04;;;;;;;15.00;14.27;;;25.90;53.20;;;;;;6211759;23;20409;-73
2022/04/15 14:23:32;;;;;;;15.73;14.93;;;25.60;52.90;;;;;;6211385;23;20502;-74
2022/04/15 14:25:59;;;;;;;15.03;14.20;;;25.10;53.70;;;;;;6211397;23;20420;-73
2022/04/15 14:28:27;;;;;;;14.33;13.60;;;24.40;54.90;;;;;;6211147;23;20412;-74
2022/04/15 14:30:54;;;;;;;16.60;15.50;;;23.80;56.10;;;;;;6211587;23;20463;-73
2022/04/15 14:33:20;;;;;;;15.13;14.33;;;23.00;56.70;;;;;;6211852;23;20401;-74
2022/04/15 14:35:47;;;;;;;15.27;14.50;;;22.30;59.00;;;;;;6211083;23;20467;-73
2022/04/15 14:38:14;;;;;;;15.37;14.40;;;22.30;59.90;;;;;;6211319;23;20435;-73
2022/04/15 14:40:42;;;;;;;15.00;14.30;;;22.20;60.50;;;;;;6211590;23;20416;-72
2022/04/15 14:43:09;;;;;;;13.70;12.83;;;22.20;59.80;;;;;;6211561;23;20445;-73
2022/04/15 14:45:36;;;;;;;13.93;13.13;;;22.10;59.40;;;;;;6211801;23;20413;-73
2022/04/15 14:48:03;;;;;;;13.63;12.93;;;21.90;58.70;;;;;;6211301;23;20546;-73
2022/04/15 14:50:30;;;;;;;13.97;12.90;;;21.90;59.30;;;;;;6212454;23;20409;-73
2022/04/15 14:52:58;;;;;;;14.27;13.30;;;21.90;59.70;;;;;;6211403;23;20405;-72
2022/04/15 14:55:24;;;;;;;13.50;12.70;;;22.10;59.50;;;;;;6211358;23;20436;-73
2022/04/15 14:57:52;;;;;;;13.97;12.60;;;21.90;59.80;;;;;;6210943;23;20445;-74
2022/04/15 15:00:19;;;;;;;12.60;11.90;;;21.90;60.70;;;;;;6212485;23;20405;-73
2022/04/15 15:02:46;;;;;;;12.90;12.10;;;21.80;60.70;;;;;;6211938;23;20409;-73
2022/04/15 15:05:15;;;;;;;14.97;13.97;;;21.70;60.50;;;;;;6212034;23;20415;-73
2022/04/15 15:07:42;;;;;;;14.90;13.97;;;21.50;60.70;;;;;;6212090;23;20741;-73
2022/04/15 15:10:09;;;;;;;13.00;12.20;;;21.50;62.70;;;;;;6212468;23;20409;-72
2022/04/15 15:12:36;;;;;;;14.27;13.47;;;21.60;62.50;;;;;;6212764;23;20776;-73
2022/04/15 15:15:06;;;;;;;12.07;11.47;;;21.60;61.50;;;;;;6212483;23;20404;-72
2022/04/15 15:17:33;;;;;;;13.10;12.40;;;21.60;60.70;;;;;;6212478;23;20417;-71
2022/04/15 15:20:00;;;;;;;13.03;12.43;;;21.50;61.00;;;;;;6212389;23;20418;-72
2022/04/15 15:22:26;;;;;;;12.90;12.20;;;21.40;61.20;;;;;;6212332;23;20412;-73
2022/04/15 15:30:37;;;;;;;13.93;13.17;;;21.30;61.50;;;;;;6212631;23;20708;-71
2022/04/15 15:33:04;;;;;;;12.80;12.20;;;21.10;61.30;;;;;;6212993;23;20392;-74
2022/04/15 15:35:31;;;;;;;12.50;11.90;;;21.00;61.70;;;;;;6212433;23;20408;-74
2022/04/15 15:37:58;;;;;;;12.43;11.77;;;20.80;61.60;;;;;;6212152;23;20405;-74
2022/04/15 15:40:25;;;;;;;12.63;11.93;;;20.70;62.20;;;;;;6212376;23;20439;-73
2022/04/15 15:42:52;;;;;;;13.47;12.73;;;20.80;63.00;;;;;;6214119;23;20419;-73
2022/04/15 15:45:19;;;;;;;13.10;12.30;;;20.90;62.30;;;;;;6214346;23;20824;-74
2022/04/15 15:47:47;;;;;;;12.33;11.73;;;20.90;63.20;;;;;;6214473;23;20412;-73